sensor_id;sensor_type;location;lat;lon;timestamp;P1;durP1;ratioP1;P2;durP2;ratioP2
84858;SDS011;75115;42.984;23.244;2024-03-23T00:53:29;4.35;;;2.45;;
84858;SDS011;75115;42.984;23.244;2024-03-23T00:55:55;6.90;;;3.55;;
84858;SDS011;75115;42.984;23.244;2024-03-23T00:58:20;12.32;;;6.20;;
84858;SDS011;75115;42.984;23.244;2024-03-23T01:00:46;6.75;;;2.83;;
84858;SDS011;75115;42.984;23.244;2024-03-23T01:03:11;4.55;;;1.65;;
84858;SDS011;75115;42.984;23.244;2024-03-23T01:05:36;4.15;;;2.20;;
84858;SDS011;75115;42.984;23.244;2024-03-23T01:08:02;3.83;;;2.20;;
84858;SDS011;75115;42.984;23.244;2024-03-23T01:10:27;3.97;;;1.98;;
84858;SDS011;75115;42.984;23.244;2024-03-23T01:12:53;5.00;;;2.17;;
84858;SDS011;75115;42.984;23.244;2024-03-23T01:15:18;7.90;;;3.00;;
84858;SDS011;75115;42.984;23.244;2024-03-23T01:17:43;6.28;;;3.20;;
84858;SDS011;75115;42.984;23.244;2024-03-23T01:20:09;6.88;;;3.13;;
84858;SDS011;75115;42.984;23.244;2024-03-23T01:22:34;5.15;;;2.63;;
84858;SDS011;75115;42.984;23.244;2024-03-23T01:24:59;5.10;;;2.88;;
84858;SDS011;75115;42.984;23.244;2024-03-23T01:27:25;4.22;;;2.20;;
84858;SDS011;75115;42.984;23.244;2024-03-23T01:29:51;4.97;;;2.33;;
84858;SDS011;75115;42.984;23.244;2024-03-23T01:32:17;5.95;;;2.60;;
84858;SDS011;75115;42.984;23.244;2024-03-23T01:34:43;6.20;;;2.60;;
84858;SDS011;75115;42.984;23.244;2024-03-23T01:37:09;3.65;;;2.42;;
84858;SDS011;75115;42.984;23.244;2024-03-23T01:39:34;8.38;;;2.53;;
84858;SDS011;75115;42.984;23.244;2024-03-23T01:42:00;5.80;;;2.10;;
84858;SDS011;75115;42.984;23.244;2024-03-23T01:44:25;6.00;;;2.33;;
84858;SDS011;75115;42.984;23.244;2024-03-23T01:46:50;3.33;;;1.88;;
84858;SDS011;75115;42.984;23.244;2024-03-23T01:49:16;3.70;;;2.60;;
84858;SDS011;75115;42.984;23.244;2024-03-23T01:51:42;3.97;;;2.30;;
84858;SDS011;75115;42.984;23.244;2024-03-23T01:54:08;6.05;;;2.40;;
84858;SDS011;75115;42.984;23.244;2024-03-23T01:56:34;6.63;;;3.55;;
84858;SDS011;75115;42.984;23.244;2024-03-23T01:59:03;5.45;;;3.50;;
84858;SDS011;75115;42.984;23.244;2024-03-23T02:01:32;9.25;;;3.90;;
84858;SDS011;75115;42.984;23.244;2024-03-23T02:03:58;8.20;;;3.08;;
84858;SDS011;75115;42.984;23.244;2024-03-23T02:06:24;9.07;;;3.78;;
84858;SDS011;75115;42.984;23.244;2024-03-23T02:08:49;4.63;;;2.85;;
84858;SDS011;75115;42.984;23.244;2024-03-23T02:11:15;6.78;;;2.65;;
84858;SDS011;75115;42.984;23.244;2024-03-23T02:13:40;5.78;;;3.00;;
84858;SDS011;75115;42.984;23.244;2024-03-23T02:16:06;5.55;;;3.28;;
84858;SDS011;75115;42.984;23.244;2024-03-23T02:18:32;5.78;;;2.53;;
84858;SDS011;75115;42.984;23.244;2024-03-23T02:20:57;4.65;;;2.15;;
84858;SDS011;75115;42.984;23.244;2024-03-23T02:23:23;4.65;;;2.22;;
84858;SDS011;75115;42.984;23.244;2024-03-23T02:25:49;7.40;;;2.60;;
84858;SDS011;75115;42.984;23.244;2024-03-23T02:28:15;4.53;;;2.28;;
84858;SDS011;75115;42.984;23.244;2024-03-23T02:30:40;4.10;;;2.38;;
84858;SDS011;75115;42.984;23.244;2024-03-23T02:33:06;5.05;;;2.55;;
84858;SDS011;75115;42.984;23.244;2024-03-23T02:35:31;11.00;;;2.80;;
84858;SDS011;75115;42.984;23.244;2024-03-23T02:37:57;7.53;;;3.20;;
84858;SDS011;75115;42.984;23.244;2024-03-23T02:40:22;5.22;;;3.15;;
84858;SDS011;75115;42.984;23.244;2024-03-23T02:42:48;5.55;;;2.25;;
84858;SDS011;75115;42.984;23.244;2024-03-23T02:45:14;5.43;;;2.70;;
84858;SDS011;75115;42.984;23.244;2024-03-23T02:47:39;3.88;;;1.92;;
84858;SDS011;75115;42.984;23.244;2024-03-23T02:50:05;3.90;;;2.45;;
84858;SDS011;75115;42.984;23.244;2024-03-23T02:52:30;5.00;;;2.30;;
84858;SDS011;75115;42.984;23.244;2024-03-23T02:54:56;5.75;;;2.20;;
84858;SDS011;75115;42.984;23.244;2024-03-23T02:57:22;4.90;;;2.58;;
84858;SDS011;75115;42.984;23.244;2024-03-23T02:59:48;6.05;;;2.92;;
84858;SDS011;75115;42.984;23.244;2024-03-23T03:02:13;6.05;;;2.22;;
84858;SDS011;75115;42.984;23.244;2024-03-23T03:04:40;5.20;;;2.58;;
84858;SDS011;75115;42.984;23.244;2024-03-23T03:07:05;5.78;;;2.50;;
84858;SDS011;75115;42.984;23.244;2024-03-23T03:09:30;5.63;;;2.65;;
84858;SDS011;75115;42.984;23.244;2024-03-23T03:11:56;7.80;;;2.80;;
84858;SDS011;75115;42.984;23.244;2024-03-23T03:14:22;7.05;;;2.22;;
84858;SDS011;75115;42.984;23.244;2024-03-23T03:16:47;3.95;;;2.10;;
84858;SDS011;75115;42.984;23.244;2024-03-23T03:19:12;7.13;;;2.25;;
84858;SDS011;75115;42.984;23.244;2024-03-23T03:21:38;5.07;;;2.28;;
84858;SDS011;75115;42.984;23.244;2024-03-23T03:24:05;4.57;;;2.22;;
84858;SDS011;75115;42.984;23.244;2024-03-23T03:26:42;4.72;;;2.40;;
84858;SDS011;75115;42.984;23.244;2024-03-23T03:29:08;3.42;;;2.13;;
84858;SDS011;75115;42.984;23.244;2024-03-23T03:31:33;13.25;;;3.83;;
84858;SDS011;75115;42.984;23.244;2024-03-23T03:33:58;6.70;;;2.05;;
84858;SDS011;75115;42.984;23.244;2024-03-23T03:36:24;5.45;;;2.22;;
84858;SDS011;75115;42.984;23.244;2024-03-23T03:38:49;4.47;;;2.08;;
84858;SDS011;75115;42.984;23.244;2024-03-23T03:41:15;7.30;;;3.00;;
84858;SDS011;75115;42.984;23.244;2024-03-23T03:43:40;4.35;;;1.88;;
84858;SDS011;75115;42.984;23.244;2024-03-23T03:46:06;4.85;;;2.50;;
84858;SDS011;75115;42.984;23.244;2024-03-23T03:48:33;6.22;;;1.80;;
84858;SDS011;75115;42.984;23.244;2024-03-23T03:50:58;6.25;;;2.58;;
84858;SDS011;75115;42.984;23.244;2024-03-23T03:53:24;3.08;;;1.70;;
84858;SDS011;75115;42.984;23.244;2024-03-23T03:55:49;4.78;;;2.13;;
84858;SDS011;75115;42.984;23.244;2024-03-23T03:58:14;7.43;;;2.38;;
84858;SDS011;75115;42.984;23.244;2024-03-23T04:00:40;5.85;;;2.53;;
84858;SDS011;75115;42.984;23.244;2024-03-23T04:03:05;7.75;;;2.50;;
84858;SDS011;75115;42.984;23.244;2024-03-23T04:05:31;7.88;;;2.45;;
84858;SDS011;75115;42.984;23.244;2024-03-23T04:07:56;5.57;;;2.25;;
84858;SDS011;75115;42.984;23.244;2024-03-23T04:10:22;4.65;;;1.88;;
84858;SDS011;75115;42.984;23.244;2024-03-23T04:12:47;3.50;;;2.15;;
84858;SDS011;75115;42.984;23.244;2024-03-23T04:15:13;4.32;;;1.67;;
84858;SDS011;75115;42.984;23.244;2024-03-23T04:17:38;5.55;;;2.38;;
84858;SDS011;75115;42.984;23.244;2024-03-23T04:20:04;5.70;;;2.88;;
84858;SDS011;75115;42.984;23.244;2024-03-23T04:22:34;4.70;;;2.50;;
84858;SDS011;75115;42.984;23.244;2024-03-23T04:24:59;7.20;;;2.20;;
84858;SDS011;75115;42.984;23.244;2024-03-23T04:27:25;3.83;;;2.35;;
84858;SDS011;75115;42.984;23.244;2024-03-23T04:29:50;4.47;;;1.98;;
84858;SDS011;75115;42.984;23.244;2024-03-23T04:32:17;4.68;;;2.50;;
84858;SDS011;75115;42.984;23.244;2024-03-23T04:34:43;7.88;;;3.28;;
84858;SDS011;75115;42.984;23.244;2024-03-23T04:37:09;4.25;;;2.20;;
84858;SDS011;75115;42.984;23.244;2024-03-23T04:39:38;5.88;;;2.40;;
84858;SDS011;75115;42.984;23.244;2024-03-23T04:42:04;15.95;;;4.93;;
84858;SDS011;75115;42.984;23.244;2024-03-23T04:44:30;10.80;;;4.10;;
84858;SDS011;75115;42.984;23.244;2024-03-23T04:46:56;12.25;;;2.90;;
84858;SDS011;75115;42.984;23.244;2024-03-23T04:49:22;11.77;;;4.18;;
84858;SDS011;75115;42.984;23.244;2024-03-23T04:51:47;15.85;;;5.47;;
84858;SDS011;75115;42.984;23.244;2024-03-23T04:54:13;24.45;;;9.20;;
84858;SDS011;75115;42.984;23.244;2024-03-23T04:56:38;26.88;;;8.95;;
84858;SDS011;75115;42.984;23.244;2024-03-23T04:59:04;24.42;;;8.30;;
84858;SDS011;75115;42.984;23.244;2024-03-23T05:01:30;23.30;;;7.10;;
84858;SDS011;75115;42.984;23.244;2024-03-23T05:03:57;17.40;;;6.40;;
84858;SDS011;75115;42.984;23.244;2024-03-23T05:06:23;20.98;;;6.82;;
84858;SDS011;75115;42.984;23.244;2024-03-23T05:08:51;28.63;;;10.20;;
84858;SDS011;75115;42.984;23.244;2024-03-23T05:11:16;30.08;;;10.40;;
84858;SDS011;75115;42.984;23.244;2024-03-23T05:13:42;32.53;;;11.77;;
84858;SDS011;75115;42.984;23.244;2024-03-23T05:16:08;31.15;;;12.20;;
84858;SDS011;75115;42.984;23.244;2024-03-23T05:18:34;25.85;;;10.63;;
84858;SDS011;75115;42.984;23.244;2024-03-23T05:21:00;26.38;;;12.25;;
84858;SDS011;75115;42.984;23.244;2024-03-23T05:23:25;26.98;;;10.00;;
84858;SDS011;75115;42.984;23.244;2024-03-23T05:25:51;32.60;;;11.82;;
84858;SDS011;75115;42.984;23.244;2024-03-23T05:28:17;27.50;;;11.10;;
84858;SDS011;75115;42.984;23.244;2024-03-23T05:30:43;25.17;;;9.65;;
84858;SDS011;75115;42.984;23.244;2024-03-23T05:33:09;35.97;;;11.52;;
84858;SDS011;75115;42.984;23.244;2024-03-23T05:35:34;38.35;;;15.20;;
84858;SDS011;75115;42.984;23.244;2024-03-23T05:37:59;47.80;;;16.52;;
84858;SDS011;75115;42.984;23.244;2024-03-23T05:40:26;38.20;;;13.68;;
84858;SDS011;75115;42.984;23.244;2024-03-23T05:42:51;28.20;;;11.27;;
84858;SDS011;75115;42.984;23.244;2024-03-23T05:45:20;15.63;;;8.43;;
84858;SDS011;75115;42.984;23.244;2024-03-23T05:47:47;14.68;;;8.13;;
84858;SDS011;75115;42.984;23.244;2024-03-23T05:50:13;16.35;;;8.10;;
84858;SDS011;75115;42.984;23.244;2024-03-23T05:52:39;16.23;;;8.38;;
84858;SDS011;75115;42.984;23.244;2024-03-23T05:55:05;11.05;;;7.70;;
84858;SDS011;75115;42.984;23.244;2024-03-23T05:57:31;13.93;;;8.48;;
84858;SDS011;75115;42.984;23.244;2024-03-23T05:59:56;13.18;;;7.53;;
84858;SDS011;75115;42.984;23.244;2024-03-23T06:02:22;19.05;;;10.27;;
84858;SDS011;75115;42.984;23.244;2024-03-23T06:04:48;16.13;;;9.70;;
84858;SDS011;75115;42.984;23.244;2024-03-23T06:07:14;21.95;;;10.48;;
84858;SDS011;75115;42.984;23.244;2024-03-23T06:09:40;15.80;;;10.10;;
84858;SDS011;75115;42.984;23.244;2024-03-23T06:12:06;10.73;;;7.63;;
84858;SDS011;75115;42.984;23.244;2024-03-23T06:14:31;13.27;;;7.40;;
84858;SDS011;75115;42.984;23.244;2024-03-23T06:16:58;14.23;;;8.43;;
84858;SDS011;75115;42.984;23.244;2024-03-23T06:19:23;12.82;;;8.27;;
84858;SDS011;75115;42.984;23.244;2024-03-23T06:21:52;14.85;;;7.93;;
84858;SDS011;75115;42.984;23.244;2024-03-23T06:24:17;12.80;;;8.05;;
84858;SDS011;75115;42.984;23.244;2024-03-23T06:26:42;12.65;;;8.27;;
84858;SDS011;75115;42.984;23.244;2024-03-23T06:29:08;10.32;;;6.15;;
84858;SDS011;75115;42.984;23.244;2024-03-23T06:31:34;9.65;;;7.20;;
84858;SDS011;75115;42.984;23.244;2024-03-23T06:33:59;12.60;;;8.82;;
84858;SDS011;75115;42.984;23.244;2024-03-23T06:36:26;16.60;;;10.60;;
84858;SDS011;75115;42.984;23.244;2024-03-23T06:38:52;42.08;;;22.88;;
84858;SDS011;75115;42.984;23.244;2024-03-23T06:41:17;27.70;;;15.93;;
84858;SDS011;75115;42.984;23.244;2024-03-23T06:43:43;17.13;;;9.07;;
84858;SDS011;75115;42.984;23.244;2024-03-23T06:46:08;42.38;;;28.58;;
84858;SDS011;75115;42.984;23.244;2024-03-23T06:48:33;30.35;;;15.43;;
84858;SDS011;75115;42.984;23.244;2024-03-23T06:50:59;22.10;;;13.73;;
84858;SDS011;75115;42.984;23.244;2024-03-23T06:53:24;42.92;;;22.38;;
84858;SDS011;75115;42.984;23.244;2024-03-23T06:55:50;24.40;;;14.40;;
84858;SDS011;75115;42.984;23.244;2024-03-23T06:58:17;25.33;;;14.95;;
84858;SDS011;75115;42.984;23.244;2024-03-23T07:00:44;14.18;;;9.90;;
84858;SDS011;75115;42.984;23.244;2024-03-23T07:03:09;26.05;;;16.73;;
84858;SDS011;75115;42.984;23.244;2024-03-23T07:05:34;16.90;;;11.90;;
84858;SDS011;75115;42.984;23.244;2024-03-23T07:08:00;12.63;;;8.60;;
84858;SDS011;75115;42.984;23.244;2024-03-23T07:10:25;8.60;;;6.55;;
84858;SDS011;75115;42.984;23.244;2024-03-23T07:12:51;8.13;;;5.10;;
84858;SDS011;75115;42.984;23.244;2024-03-23T07:15:16;9.23;;;5.47;;
84858;SDS011;75115;42.984;23.244;2024-03-23T07:17:41;7.93;;;5.85;;
84858;SDS011;75115;42.984;23.244;2024-03-23T07:20:07;10.80;;;6.90;;
84858;SDS011;75115;42.984;23.244;2024-03-23T07:22:35;10.50;;;7.63;;
84858;SDS011;75115;42.984;23.244;2024-03-23T07:25:01;10.45;;;6.65;;
84858;SDS011;75115;42.984;23.244;2024-03-23T07:27:26;10.20;;;7.78;;
84858;SDS011;75115;42.984;23.244;2024-03-23T07:29:52;10.65;;;7.15;;
84858;SDS011;75115;42.984;23.244;2024-03-23T07:32:17;12.93;;;7.13;;
84858;SDS011;75115;42.984;23.244;2024-03-23T07:34:43;9.82;;;6.80;;
84858;SDS011;75115;42.984;23.244;2024-03-23T07:37:09;10.13;;;6.60;;
84858;SDS011;75115;42.984;23.244;2024-03-23T07:39:35;12.50;;;6.35;;
84858;SDS011;75115;42.984;23.244;2024-03-23T07:42:00;10.80;;;6.07;;
84858;SDS011;75115;42.984;23.244;2024-03-23T07:44:26;13.30;;;5.82;;
84858;SDS011;75115;42.984;23.244;2024-03-23T07:46:51;9.32;;;6.78;;
84858;SDS011;75115;42.984;23.244;2024-03-23T07:49:16;11.55;;;5.10;;
84858;SDS011;75115;42.984;23.244;2024-03-23T07:51:43;7.32;;;4.72;;
84858;SDS011;75115;42.984;23.244;2024-03-23T07:54:09;9.70;;;4.88;;
84858;SDS011;75115;42.984;23.244;2024-03-23T07:56:35;7.30;;;4.85;;
84858;SDS011;75115;42.984;23.244;2024-03-23T07:59:00;14.45;;;7.35;;
84858;SDS011;75115;42.984;23.244;2024-03-23T08:01:28;7.50;;;4.85;;
84858;SDS011;75115;42.984;23.244;2024-03-23T08:03:54;12.68;;;5.05;;
84858;SDS011;75115;42.984;23.244;2024-03-23T08:06:20;7.72;;;4.07;;
84858;SDS011;75115;42.984;23.244;2024-03-23T08:11:14;8.52;;;4.20;;
84858;SDS011;75115;42.984;23.244;2024-03-23T08:13:39;17.23;;;10.15;;
84858;SDS011;75115;42.984;23.244;2024-03-23T08:16:06;7.63;;;3.60;;
84858;SDS011;75115;42.984;23.244;2024-03-23T08:18:33;9.82;;;3.60;;
84858;SDS011;75115;42.984;23.244;2024-03-23T08:21:02;8.57;;;4.43;;
84858;SDS011;75115;42.984;23.244;2024-03-23T08:23:31;16.52;;;8.52;;
84858;SDS011;75115;42.984;23.244;2024-03-23T08:25:59;11.68;;;3.92;;
84858;SDS011;75115;42.984;23.244;2024-03-23T08:28:25;16.73;;;7.40;;
84858;SDS011;75115;42.984;23.244;2024-03-23T08:30:52;6.82;;;3.30;;
84858;SDS011;75115;42.984;23.244;2024-03-23T08:33:18;7.53;;;2.83;;
84858;SDS011;75115;42.984;23.244;2024-03-23T08:35:52;8.05;;;3.58;;
84858;SDS011;75115;42.984;23.244;2024-03-23T08:38:24;11.25;;;3.28;;
84858;SDS011;75115;42.984;23.244;2024-03-23T08:41:01;7.07;;;3.17;;
84858;SDS011;75115;42.984;23.244;2024-03-23T08:43:31;6.88;;;3.28;;
84858;SDS011;75115;42.984;23.244;2024-03-23T08:46:07;5.78;;;3.35;;
84858;SDS011;75115;42.984;23.244;2024-03-23T08:48:43;4.97;;;2.75;;
84858;SDS011;75115;42.984;23.244;2024-03-23T08:51:10;7.07;;;3.65;;
84858;SDS011;75115;42.984;23.244;2024-03-23T08:53:37;6.97;;;3.38;;
84858;SDS011;75115;42.984;23.244;2024-03-23T08:56:03;7.40;;;3.50;;
84858;SDS011;75115;42.984;23.244;2024-03-23T08:58:31;5.82;;;2.97;;
84858;SDS011;75115;42.984;23.244;2024-03-23T09:01:02;6.63;;;3.50;;
84858;SDS011;75115;42.984;23.244;2024-03-23T09:03:35;6.10;;;3.25;;
84858;SDS011;75115;42.984;23.244;2024-03-23T09:06:02;5.60;;;2.80;;
84858;SDS011;75115;42.984;23.244;2024-03-23T09:08:35;4.32;;;2.65;;
84858;SDS011;75115;42.984;23.244;2024-03-23T09:11:08;5.18;;;2.90;;
84858;SDS011;75115;42.984;23.244;2024-03-23T09:13:38;4.60;;;2.75;;
84858;SDS011;75115;42.984;23.244;2024-03-23T09:16:04;6.72;;;2.90;;
84858;SDS011;75115;42.984;23.244;2024-03-23T09:18:34;4.88;;;2.95;;
84858;SDS011;75115;42.984;23.244;2024-03-23T09:21:00;6.13;;;3.08;;
84858;SDS011;75115;42.984;23.244;2024-03-23T09:23:26;14.02;;;4.07;;
84858;SDS011;75115;42.984;23.244;2024-03-23T09:25:52;10.98;;;4.93;;
84858;SDS011;75115;42.984;23.244;2024-03-23T09:28:17;10.15;;;4.10;;
84858;SDS011;75115;42.984;23.244;2024-03-23T09:30:43;6.25;;;2.97;;
84858;SDS011;75115;42.984;23.244;2024-03-23T09:33:11;6.25;;;3.42;;
84858;SDS011;75115;42.984;23.244;2024-03-23T09:35:38;5.80;;;3.67;;
84858;SDS011;75115;42.984;23.244;2024-03-23T09:38:04;6.32;;;3.30;;
84858;SDS011;75115;42.984;23.244;2024-03-23T09:40:29;7.72;;;3.08;;
84858;SDS011;75115;42.984;23.244;2024-03-23T09:42:55;8.02;;;2.80;;
84858;SDS011;75115;42.984;23.244;2024-03-23T09:45:21;5.85;;;3.10;;
84858;SDS011;75115;42.984;23.244;2024-03-23T09:47:51;6.28;;;2.67;;
84858;SDS011;75115;42.984;23.244;2024-03-23T09:50:17;6.90;;;2.60;;
84858;SDS011;75115;42.984;23.244;2024-03-23T09:52:43;9.20;;;3.45;;
84858;SDS011;75115;42.984;23.244;2024-03-23T09:55:10;4.95;;;3.05;;
84858;SDS011;75115;42.984;23.244;2024-03-23T09:57:36;4.55;;;2.58;;
84858;SDS011;75115;42.984;23.244;2024-03-23T10:00:02;4.93;;;2.90;;
84858;SDS011;75115;42.984;23.244;2024-03-23T10:02:28;8.02;;;4.75;;
84858;SDS011;75115;42.984;23.244;2024-03-23T10:04:54;4.63;;;2.88;;
84858;SDS011;75115;42.984;23.244;2024-03-23T10:07:20;6.38;;;2.90;;
84858;SDS011;75115;42.984;23.244;2024-03-23T10:09:48;6.97;;;2.80;;
84858;SDS011;75115;42.984;23.244;2024-03-23T10:12:17;7.05;;;3.05;;
84858;SDS011;75115;42.984;23.244;2024-03-23T10:14:43;9.40;;;3.53;;
84858;SDS011;75115;42.984;23.244;2024-03-23T10:19:42;4.95;;;2.67;;
84858;SDS011;75115;42.984;23.244;2024-03-23T10:22:22;3.92;;;2.60;;
84858;SDS011;75115;42.984;23.244;2024-03-23T10:24:49;5.03;;;3.00;;
84858;SDS011;75115;42.984;23.244;2024-03-23T10:27:18;8.27;;;2.63;;
84858;SDS011;75115;42.984;23.244;2024-03-23T10:29:45;8.68;;;2.42;;
84858;SDS011;75115;42.984;23.244;2024-03-23T10:32:14;8.60;;;2.70;;
84858;SDS011;75115;42.984;23.244;2024-03-23T10:34:41;4.53;;;2.70;;
84858;SDS011;75115;42.984;23.244;2024-03-23T10:37:07;5.53;;;2.83;;
84858;SDS011;75115;42.984;23.244;2024-03-23T10:39:33;6.57;;;2.40;;
84858;SDS011;75115;42.984;23.244;2024-03-23T10:42:03;4.38;;;2.60;;
84858;SDS011;75115;42.984;23.244;2024-03-23T10:44:33;7.40;;;2.40;;
84858;SDS011;75115;42.984;23.244;2024-03-23T10:46:59;3.63;;;2.35;;
84858;SDS011;75115;42.984;23.244;2024-03-23T10:49:34;7.00;;;2.85;;
84858;SDS011;75115;42.984;23.244;2024-03-23T10:52:04;15.60;;;3.38;;
84858;SDS011;75115;42.984;23.244;2024-03-23T10:54:31;6.32;;;2.20;;
84858;SDS011;75115;42.984;23.244;2024-03-23T10:59:38;2.95;;;2.05;;
84858;SDS011;75115;42.984;23.244;2024-03-23T11:02:04;5.63;;;2.97;;
84858;SDS011;75115;42.984;23.244;2024-03-23T11:04:30;4.05;;;2.30;;
84858;SDS011;75115;42.984;23.244;2024-03-23T11:06:59;7.90;;;3.22;;
84858;SDS011;75115;42.984;23.244;2024-03-23T11:09:46;4.07;;;2.40;;
84858;SDS011;75115;42.984;23.244;2024-03-23T11:17:29;3.92;;;2.65;;
84858;SDS011;75115;42.984;23.244;2024-03-23T11:19:58;7.63;;;3.20;;
84858;SDS011;75115;42.984;23.244;2024-03-23T11:22:37;13.65;;;5.03;;
84858;SDS011;75115;42.984;23.244;2024-03-23T11:25:21;5.43;;;2.88;;
84858;SDS011;75115;42.984;23.244;2024-03-23T11:27:58;7.90;;;2.47;;
84858;SDS011;75115;42.984;23.244;2024-03-23T11:30:36;3.85;;;2.00;;
84858;SDS011;75115;42.984;23.244;2024-03-23T11:33:05;3.70;;;2.40;;
84858;SDS011;75115;42.984;23.244;2024-03-23T11:43:05;8.75;;;2.88;;
84858;SDS011;75115;42.984;23.244;2024-03-23T11:45:50;6.18;;;2.10;;
84858;SDS011;75115;42.984;23.244;2024-03-23T11:48:18;6.03;;;2.80;;
84858;SDS011;75115;42.984;23.244;2024-03-23T11:50:55;4.00;;;2.10;;
84858;SDS011;75115;42.984;23.244;2024-03-23T11:53:23;12.18;;;4.30;;
84858;SDS011;75115;42.984;23.244;2024-03-23T11:55:50;17.98;;;4.55;;
84858;SDS011;75115;42.984;23.244;2024-03-23T11:58:20;5.15;;;2.35;;
84858;SDS011;75115;42.984;23.244;2024-03-23T12:00:54;10.05;;;4.07;;
84858;SDS011;75115;42.984;23.244;2024-03-23T12:03:24;9.23;;;3.58;;
84858;SDS011;75115;42.984;23.244;2024-03-23T12:05:58;7.22;;;3.35;;
84858;SDS011;75115;42.984;23.244;2024-03-23T12:11:04;7.25;;;2.38;;
84858;SDS011;75115;42.984;23.244;2024-03-23T12:13:31;6.90;;;3.30;;
84858;SDS011;75115;42.984;23.244;2024-03-23T12:16:08;8.70;;;3.42;;
84858;SDS011;75115;42.984;23.244;2024-03-23T12:18:39;3.47;;;2.20;;
84858;SDS011;75115;42.984;23.244;2024-03-23T12:21:05;5.20;;;2.30;;
84858;SDS011;75115;42.984;23.244;2024-03-23T12:23:32;4.88;;;1.90;;
84858;SDS011;75115;42.984;23.244;2024-03-23T12:25:57;4.05;;;2.17;;
84858;SDS011;75115;42.984;23.244;2024-03-23T12:28:23;3.42;;;2.28;;
84858;SDS011;75115;42.984;23.244;2024-03-23T12:30:48;12.75;;;4.60;;
84858;SDS011;75115;42.984;23.244;2024-03-23T12:33:14;5.00;;;3.13;;
84858;SDS011;75115;42.984;23.244;2024-03-23T12:35:39;5.05;;;2.63;;
84858;SDS011;75115;42.984;23.244;2024-03-23T12:38:04;12.82;;;2.75;;
84858;SDS011;75115;42.984;23.244;2024-03-23T12:40:30;4.05;;;2.10;;
84858;SDS011;75115;42.984;23.244;2024-03-23T12:42:55;2.95;;;2.10;;
84858;SDS011;75115;42.984;23.244;2024-03-23T12:45:21;4.55;;;1.75;;
84858;SDS011;75115;42.984;23.244;2024-03-23T12:47:47;4.22;;;1.90;;
84858;SDS011;75115;42.984;23.244;2024-03-23T12:50:12;2.78;;;1.83;;
84858;SDS011;75115;42.984;23.244;2024-03-23T12:52:37;4.57;;;1.67;;
84858;SDS011;75115;42.984;23.244;2024-03-23T12:55:03;3.30;;;1.65;;
84858;SDS011;75115;42.984;23.244;2024-03-23T12:57:32;4.38;;;1.88;;
84858;SDS011;75115;42.984;23.244;2024-03-23T12:59:58;3.67;;;2.13;;
84858;SDS011;75115;42.984;23.244;2024-03-23T13:02:23;4.00;;;1.92;;
84858;SDS011;75115;42.984;23.244;2024-03-23T13:04:49;2.85;;;1.48;;
84858;SDS011;75115;42.984;23.244;2024-03-23T13:07:16;4.32;;;1.67;;
84858;SDS011;75115;42.984;23.244;2024-03-23T13:09:42;3.58;;;1.95;;
84858;SDS011;75115;42.984;23.244;2024-03-23T13:12:08;2.97;;;2.00;;
84858;SDS011;75115;42.984;23.244;2024-03-23T13:14:34;2.42;;;1.83;;
84858;SDS011;75115;42.984;23.244;2024-03-23T13:16:59;5.15;;;3.35;;
84858;SDS011;75115;42.984;23.244;2024-03-23T13:19:26;4.93;;;2.55;;
84858;SDS011;75115;42.984;23.244;2024-03-23T13:21:53;7.82;;;2.83;;
84858;SDS011;75115;42.984;23.244;2024-03-23T13:24:23;5.75;;;2.58;;
84858;SDS011;75115;42.984;23.244;2024-03-23T13:26:49;7.88;;;3.95;;
84858;SDS011;75115;42.984;23.244;2024-03-23T13:29:16;3.75;;;2.00;;
84858;SDS011;75115;42.984;23.244;2024-03-23T13:31:41;3.75;;;1.95;;
84858;SDS011;75115;42.984;23.244;2024-03-23T13:34:07;3.00;;;1.55;;
84858;SDS011;75115;42.984;23.244;2024-03-23T13:36:32;2.85;;;1.92;;
84858;SDS011;75115;42.984;23.244;2024-03-23T13:38:57;5.38;;;1.83;;
84858;SDS011;75115;42.984;23.244;2024-03-23T13:41:23;3.70;;;2.30;;
84858;SDS011;75115;42.984;23.244;2024-03-23T13:43:49;2.90;;;2.30;;
84858;SDS011;75115;42.984;23.244;2024-03-23T13:46:14;4.25;;;2.13;;
84858;SDS011;75115;42.984;23.244;2024-03-23T13:48:40;5.80;;;2.28;;
84858;SDS011;75115;42.984;23.244;2024-03-23T13:51:07;10.05;;;3.85;;
84858;SDS011;75115;42.984;23.244;2024-03-23T13:53:32;4.20;;;2.35;;
84858;SDS011;75115;42.984;23.244;2024-03-23T13:55:58;2.55;;;1.80;;
84858;SDS011;75115;42.984;23.244;2024-03-23T13:58:23;4.10;;;2.10;;
84858;SDS011;75115;42.984;23.244;2024-03-23T15:23:29;14.02;;;4.60;;
84858;SDS011;75115;42.984;23.244;2024-03-23T15:28:20;8.93;;;4.40;;
84858;SDS011;75115;42.984;23.244;2024-03-23T15:30:46;7.45;;;4.60;;
84858;SDS011;75115;42.984;23.244;2024-03-23T15:33:12;9.07;;;3.88;;
84858;SDS011;75115;42.984;23.244;2024-03-23T15:35:37;7.93;;;2.70;;
84858;SDS011;75115;42.984;23.244;2024-03-23T15:38:02;13.77;;;7.28;;
84858;SDS011;75115;42.984;23.244;2024-03-23T15:40:28;11.18;;;5.97;;
84858;SDS011;75115;42.984;23.244;2024-03-23T15:42:54;6.22;;;3.58;;
84858;SDS011;75115;42.984;23.244;2024-03-23T15:45:19;4.55;;;2.70;;
84858;SDS011;75115;42.984;23.244;2024-03-23T15:47:44;5.15;;;2.33;;
84858;SDS011;75115;42.984;23.244;2024-03-23T15:50:10;5.38;;;2.40;;
84858;SDS011;75115;42.984;23.244;2024-03-23T15:52:35;6.40;;;2.28;;
84858;SDS011;75115;42.984;23.244;2024-03-23T15:55:02;2.78;;;2.33;;
84858;SDS011;75115;42.984;23.244;2024-03-23T15:57:34;4.88;;;2.40;;
84858;SDS011;75115;42.984;23.244;2024-03-23T15:59:59;4.20;;;2.60;;
84858;SDS011;75115;42.984;23.244;2024-03-23T16:02:25;4.50;;;2.33;;
84858;SDS011;75115;42.984;23.244;2024-03-23T16:04:52;5.90;;;4.80;;
84858;SDS011;75115;42.984;23.244;2024-03-23T16:07:18;9.65;;;5.60;;
84858;SDS011;75115;42.984;23.244;2024-03-23T16:09:43;2.65;;;2.10;;
84858;SDS011;75115;42.984;23.244;2024-03-23T16:12:08;3.78;;;2.50;;
84858;SDS011;75115;42.984;23.244;2024-03-23T16:14:34;4.95;;;3.22;;
84858;SDS011;75115;42.984;23.244;2024-03-23T16:16:59;4.80;;;2.65;;
84858;SDS011;75115;42.984;23.244;2024-03-23T16:19:24;3.42;;;2.72;;
84858;SDS011;75115;42.984;23.244;2024-03-23T16:21:50;5.30;;;2.75;;
84858;SDS011;75115;42.984;23.244;2024-03-23T16:24:15;3.47;;;2.00;;
84858;SDS011;75115;42.984;23.244;2024-03-23T16:26:40;8.32;;;3.83;;
84858;SDS011;75115;42.984;23.244;2024-03-23T16:29:06;38.20;;;14.02;;
84858;SDS011;75115;42.984;23.244;2024-03-23T16:31:34;43.55;;;16.10;;
84858;SDS011;75115;42.984;23.244;2024-03-23T16:33:59;13.23;;;6.35;;
84858;SDS011;75115;42.984;23.244;2024-03-23T16:36:25;17.92;;;9.02;;
84858;SDS011;75115;42.984;23.244;2024-03-23T16:38:51;14.52;;;7.55;;
84858;SDS011;75115;42.984;23.244;2024-03-23T16:41:16;15.45;;;7.55;;
84858;SDS011;75115;42.984;23.244;2024-03-23T16:43:42;36.05;;;17.77;;
84858;SDS011;75115;42.984;23.244;2024-03-23T16:46:08;20.52;;;10.00;;
84858;SDS011;75115;42.984;23.244;2024-03-23T16:48:40;15.55;;;7.47;;
84858;SDS011;75115;42.984;23.244;2024-03-23T16:51:07;13.88;;;8.02;;
84858;SDS011;75115;42.984;23.244;2024-03-23T16:53:33;10.93;;;6.18;;
84858;SDS011;75115;42.984;23.244;2024-03-23T16:56:03;10.65;;;5.53;;
84858;SDS011;75115;42.984;23.244;2024-03-23T16:58:31;7.40;;;5.18;;
84858;SDS011;75115;42.984;23.244;2024-03-23T17:01:03;9.52;;;4.70;;
84858;SDS011;75115;42.984;23.244;2024-03-23T17:03:29;7.75;;;3.03;;
84858;SDS011;75115;42.984;23.244;2024-03-23T17:05:55;3.85;;;2.78;;